Briefing drone pour Varennes-vauzelles

Rechercher une autre localisation

Conditions de vol :


Nous sommes le : Lundi 04 juillet 2022
Il est 11:47 UTC (13:47 LT)

Lever de soleil : 03:32 UTC (05:32 LT)
Coucher de soleil : 20:11 UTC (22:11 LT)

Météo

L'essentiel des conditions de vol

VIGILANCE MÉTÉO FRANCE - Nièvre (58)
Pas de vigilances particulieres
CARTES DES FRONTS
METAR de LFQG
LFQG 041130Z AUTO 02004KT 330V060 CAVOK 24/14 Q1021

Date d'émission: 04/07/2022
Heure d'émission: 11:30 UTC
Vent: 020° (variable du 330° au 060°) pour 4 KT (7 km/h)
Visibilité horizontale: > 10 km
Plafond : Plafond et visibilité OK (CAVOK)
Température: 24 °C
Point de rosée: 14 °C
Humidité: 54%
Pression (QNH): 1021 hPa
Prévision 24h pour Nevers (2 km)
Vent : 356° pour 1 KT (2 km/h)
Temperature Maxi: 15 °C
Temperature Min: 15 °C
Humidité : 73%
Condition : Ciel dégagé



Warning: count(): Parameter must be an array or an object that implements Countable in /homepages/6/d509196549/htdocs/droneoxygene/briefing.php on line 743
WEBCAM POUR VARENNES-VAUZELLES

Réglementation

Voler en sécurité

CARTES AERONAUTIQUE 1/500.000
CARTES VAC (LFQG)
SUP AIP




Chargement des AIP...
NOTAM (VARENNES-VAUZELLES + Terrain à proximité / FIR )




Chargement des NOTAMS...
CONTACT PREFECTURE 58


Avertissement : Les données mises à disposition sont indicatives. Oxygène Drone ne pourra être tenu responsable de dégâts causés aux biens et aux personnes.